Time;durP1;ratioP1;P1;durP2;ratioP2;P2;SDS_P1;SDS_P2;PMS_P1;PMS_P2;Temp;Humidity;BMP_temperature;BMP_pressure;BME280_temperature;BME280_humidity;BME280_pressure;Samples;Min_cycle;Max_cycle;Signal;HPM_P1;HPM_P2
2022/09/26 00:01:44;;;;;;;10.30;5.28;;;;;;;11.46;83.59;100276.94;7399006;19;20078;-68
2022/09/26 00:04:18;;;;;;;6.15;4.85;;;;;;;11.44;83.26;100268.22;7399660;19;20094;-68
2022/09/26 00:06:47;;;;;;;10.05;5.63;;;;;;;11.43;83.44;100271.75;7400385;19;20018;-67
2022/09/26 00:09:19;;;;;;;5.90;5.30;;;;;;;11.42;83.71;100259.53;7396980;19;20488;-68
2022/09/26 00:11:48;;;;;;;6.07;5.47;;;;;;;11.43;83.71;100260.41;7400052;19;20022;-68
2022/09/26 00:14:21;;;;;;;6.95;5.22;;;;;;;11.41;83.26;100256.06;7399678;19;20046;-67
2022/09/26 00:16:50;;;;;;;7.78;5.20;;;;;;;11.39;83.36;100260.50;7400120;19;20031;-67
2022/09/26 00:19:19;;;;;;;6.47;4.93;;;;;;;11.40;83.57;100258.75;7398642;19;20078;-68
2022/09/26 00:21:48;;;;;;;10.50;4.97;;;;;;;11.38;83.67;100261.41;7398756;19;20018;-67
2022/09/26 00:24:19;;;;;;;5.95;4.50;;;;;;;11.37;84.07;100261.47;7399318;19;20098;-67
2022/09/26 00:26:48;;;;;;;8.75;4.50;;;;;;;11.36;83.64;100257.09;7399739;19;20083;-68
2022/09/26 00:29:16;;;;;;;7.38;5.05;;;;;;;11.33;83.83;100258.06;7396485;19;20600;-68
2022/09/26 00:31:47;;;;;;;5.65;4.55;;;;;;;11.33;83.81;100259.84;7398788;19;20426;-68
2022/09/26 00:34:38;;;;;;;6.25;5.32;;;;;;;11.30;83.93;100258.19;7398650;19;20014;-67
2022/09/26 00:37:06;;;;;;;6.95;5.03;;;;;;;11.29;83.82;100253.00;7398971;19;20035;-68
2022/09/26 00:39:37;;;;;;;5.47;4.93;;;;;;;11.29;84.16;100250.34;7397743;19;20082;-68
2022/09/26 00:42:06;;;;;;;6.15;4.53;;;;;;;11.28;83.62;100241.59;7397725;19;20032;-67
2022/09/26 00:44:47;;;;;;;7.00;5.18;;;;;;;11.28;84.03;100246.84;7396623;19;20082;-68
2022/09/26 00:47:27;;;;;;;7.82;5.60;;;;;;;11.28;83.72;100252.09;7399057;19;20027;-67
2022/09/26 00:50:00;;;;;;;6.97;4.55;;;;;;;11.27;83.75;100245.13;7397286;19;20039;-67
2022/09/26 00:52:46;;;;;;;6.55;5.13;;;;;;;11.27;84.05;100244.28;7397410;19;20505;-68
2022/09/26 00:55:20;;;;;;;7.47;5.50;;;;;;;11.25;83.64;100239.09;7398797;19;20026;-69
2022/09/26 00:57:52;;;;;;;;;;;;;;;11.24;84.09;100240.84;7399614;19;20069;-68
2022/09/26 01:00:22;;;;;;;6.72;4.90;;;;;;;11.24;83.43;100240.00;7396195;19;19919;-68
2022/09/26 01:02:54;;;;;;;5.95;4.38;;;;;;;11.23;83.56;100233.91;7397287;19;20025;-69
2022/09/26 01:05:24;;;;;;;9.13;4.60;;;;;;;11.23;83.56;100230.41;7396338;19;20083;-68
2022/09/26 01:07:54;;;;;;;6.80;4.82;;;;;;;11.23;83.47;100238.28;7397336;19;20022;-68
2022/09/26 01:10:25;;;;;;;6.43;4.05;;;;;;;11.23;83.29;100227.78;7395792;19;20086;-68
2022/09/26 01:12:55;;;;;;;6.72;4.72;;;;;;;11.23;83.30;100233.91;7397027;19;20014;-66
2022/09/26 01:15:23;;;;;;;5.15;4.00;;;;;;;11.22;83.26;100229.53;7397535;19;20019;-66
2022/09/26 01:17:52;;;;;;;5.80;4.78;;;;;;;11.23;83.34;100231.28;7397648;19;20090;-67
2022/09/26 01:20:30;;;;;;;7.13;3.60;;;;;;;11.23;83.06;100223.41;7396466;19;20077;-67
2022/09/26 01:23:43;;;;;;;5.95;4.05;;;;;;;11.25;83.03;100226.81;7396227;19;20074;-67
2022/09/26 01:26:54;;;;;;;5.00;3.58;;;;;;;11.28;82.88;100225.00;7392210;19;20616;-67
2022/09/26 01:29:45;;;;;;;5.75;3.35;;;;;;;11.28;82.80;100219.75;7396487;19;20078;-66
2022/09/26 01:35:18;;;;;;;5.75;3.70;;;;;;;11.29;82.50;100213.59;7396811;19;20073;-66
2022/09/26 01:37:58;;;;;;;3.88;3.45;;;;;;;11.28;82.53;100214.50;7395717;19;20074;-66
2022/09/26 01:40:33;;;;;;;13.07;7.47;;;;;;;11.29;82.50;100203.09;7395153;19;20492;-66
2022/09/26 01:43:10;;;;;;;4.50;3.95;;;;;;;11.29;82.39;100206.56;7395405;19;20517;-66
2022/09/26 01:45:48;;;;;;;5.15;3.40;;;;;;;11.29;82.40;100209.19;7397162;19;20019;-66
2022/09/26 01:48:23;;;;;;;4.82;3.13;;;;;;;11.30;82.45;100210.03;7397113;19;20022;-65
2022/09/26 01:50:54;;;;;;;4.57;3.65;;;;;;;11.28;82.21;100206.63;7394553;19;20509;-66
2022/09/26 01:53:27;;;;;;;4.40;3.38;;;;;;;11.29;82.32;100206.56;7394933;19;20027;-66
2022/09/26 01:56:01;;;;;;;6.47;3.67;;;;;;;11.28;82.38;100202.22;7397034;19;20070;-66
2022/09/26 01:58:33;;;;;;;5.38;3.25;;;;;;;11.27;82.28;100202.28;7396717;19;20073;-67
2022/09/26 02:01:09;;;;;;;3.53;3.08;;;;;;;11.27;82.28;100197.03;7396437;19;20082;-66
2022/09/26 02:03:47;;;;;;;11.00;6.90;;;;;;;11.27;82.28;100194.41;7395280;19;20017;-66
2022/09/26 02:06:20;;;;;;;4.72;2.97;;;;;;;11.25;82.08;100187.41;7396586;19;20022;-67
2022/09/26 02:08:52;;;;;;;5.95;3.10;;;;;;;11.25;81.99;100186.56;7394378;19;20089;-66
2022/09/26 02:11:21;;;;;;;7.85;3.28;;;;;;;11.24;82.06;100177.81;7395640;19;20453;-66
2022/09/26 02:13:54;;;;;;;7.05;3.22;;;;;;;11.24;81.94;100171.72;7395799;19;20086;-67
2022/09/26 02:16:28;;;;;;;4.13;3.20;;;;;;;11.25;81.90;100170.81;7393650;19;20074;-67
2022/09/26 02:19:04;;;;;;;3.90;3.05;;;;;;;11.24;81.75;100172.56;7392772;19;20077;-66
2022/09/26 02:21:32;;;;;;;5.60;3.40;;;;;;;11.23;81.73;100170.88;7395500;19;20078;-67
2022/09/26 02:24:01;;;;;;;4.55;2.90;;;;;;;11.23;81.72;100170.00;7393874;19;20079;-67
2022/09/26 02:26:30;;;;;;;6.00;3.10;;;;;;;11.24;81.75;100166.47;7395613;19;20085;-67
2022/09/26 02:28:59;;;;;;;6.13;3.08;;;;;;;11.23;81.57;100165.63;7394165;19;20018;-67
2022/09/26 02:31:32;;;;;;;3.72;2.83;;;;;;;11.23;81.51;100168.25;7395991;19;20082;-67
2022/09/26 02:34:04;;;;;;;6.57;3.40;;;;;;;11.22;81.65;100161.28;7393474;19;20018;-67
2022/09/26 02:36:33;;;;;;;4.82;2.90;;;;;;;11.21;81.74;100162.19;7392827;19;20485;-66
2022/09/26 02:39:01;;;;;;;4.30;2.92;;;;;;;11.21;81.73;100161.34;7392459;19;20011;-67
2022/09/26 02:41:36;;;;;;;5.15;2.85;;;;;;;11.19;81.56;100152.63;7392964;19;20066;-66
2022/09/26 02:44:20;;;;;;;3.63;3.00;;;;;;;11.19;81.70;100156.13;7393432;19;20018;-67
2022/09/26 02:47:21;;;;;;;5.07;2.90;;;;;;;11.16;81.57;100153.59;7395503;19;20078;-66
2022/09/26 02:50:08;;;;;;;6.20;3.35;;;;;;;11.17;81.73;100144.81;7393734;19;20082;-66
2022/09/26 02:52:46;;;;;;;12.68;7.63;;;;;;;11.17;81.68;100154.44;7394539;19;20078;-66
2022/09/26 02:55:22;;;;;;;14.05;6.25;;;;;;;11.15;81.56;100154.50;7394774;19;20030;-66
2022/09/26 02:58:04;;;;;;;5.13;2.67;;;;;;;11.14;81.49;100155.41;7393977;19;20010;-66
2022/09/26 03:00:44;;;;;;;5.75;3.17;;;;;;;11.14;81.61;100149.31;7392953;19;20041;-67
2022/09/26 03:03:19;;;;;;;3.95;2.55;;;;;;;11.13;81.49;100144.97;7393430;19;20026;-67
2022/09/26 03:05:53;;;;;;;2.72;2.53;;;;;;;11.12;81.33;100143.25;7394778;19;20018;-67
2022/09/26 03:08:26;;;;;;;5.18;2.83;;;;;;;11.10;81.24;100138.06;7394695;19;20070;-67
2022/09/26 03:10:58;;;;;;;6.10;3.17;;;;;;;11.12;81.30;100138.88;7394379;19;20015;-67
2022/09/26 03:13:30;;;;;;;3.83;2.58;;;;;;;11.11;81.31;100134.53;7392547;19;20019;-67
2022/09/26 03:16:01;;;;;;;6.57;2.70;;;;;;;11.12;81.29;100138.00;7395045;19;20018;-66
2022/09/26 03:18:40;;;;;;;3.50;2.85;;;;;;;11.10;81.23;100127.56;7394336;19;20074;-67
2022/09/26 03:21:11;;;;;;;5.18;3.40;;;;;;;11.11;81.21;100126.66;7394294;19;20023;-67
2022/09/26 03:23:39;;;;;;;3.53;2.90;;;;;;;11.10;81.30;100119.69;7392262;19;20010;-67
2022/09/26 03:26:12;;;;;;;13.25;8.32;;;;;;;11.11;81.27;100116.16;7393850;19;20018;-67
2022/09/26 03:28:41;;;;;;;18.08;9.30;;;;;;;11.10;81.20;100114.44;7393869;19;20019;-66
2022/09/26 03:31:10;;;;;;;4.10;3.17;;;;;;;11.10;81.24;100121.47;7397666;19;20017;-67
2022/09/26 03:33:39;;;;;;;5.28;3.40;;;;;;;11.07;81.16;100106.66;7398297;19;20018;-66
2022/09/26 03:36:11;;;;;;;5.05;3.60;;;;;;;11.10;81.36;100114.44;7398208;19;20073;-66
2022/09/26 03:38:39;;;;;;;4.68;3.47;;;;;;;11.08;81.32;100105.72;7400346;19;20021;-67
2022/09/26 03:41:08;;;;;;;9.02;3.83;;;;;;;11.07;81.49;100106.66;7397398;19;20081;-67
2022/09/26 03:43:37;;;;;;;3.33;2.75;;;;;;;11.05;81.38;100113.72;7397542;19;20349;-67
2022/09/26 03:46:07;;;;;;;5.03;3.40;;;;;;;11.04;81.53;100112.00;7400363;19;20036;-67
2022/09/26 03:48:36;;;;;;;4.60;2.90;;;;;;;11.01;81.57;100106.88;7397379;19;20082;-66
2022/09/26 03:51:05;;;;;;;7.75;4.00;;;;;;;11.00;81.71;100106.00;7400452;19;20082;-66
2022/09/26 03:53:38;;;;;;;6.60;3.88;;;;;;;10.99;81.86;100106.06;7397305;19;20021;-67
2022/09/26 03:56:08;;;;;;;4.50;3.47;;;;;;;10.97;81.84;100100.88;7400080;19;20010;-66
2022/09/26 03:58:37;;;;;;;6.97;3.65;;;;;;;10.95;81.95;100101.81;7399471;19;20548;-66
2022/09/26 04:01:07;;;;;;;7.25;4.13;;;;;;;10.93;82.08;100101.84;7399718;19;20026;-67
2022/09/26 04:03:36;;;;;;;6.55;4.60;;;;;;;10.92;82.23;100098.38;7398583;19;20019;-66
2022/09/26 04:06:07;;;;;;;5.45;3.88;;;;;;;10.91;82.07;100101.91;7396944;19;20074;-67
2022/09/26 04:08:38;;;;;;;7.15;3.85;;;;;;;10.87;82.54;100095.06;7399505;19;20021;-66
2022/09/26 04:11:09;;;;;;;5.93;4.40;;;;;;;10.90;82.46;100094.94;7399390;19;20025;-66
2022/09/26 04:13:39;;;;;;;9.30;4.40;;;;;;;10.91;82.60;100101.06;7399812;19;20346;-66
2022/09/26 04:16:10;;;;;;;5.72;3.78;;;;;;;10.89;82.65;100100.25;7399434;19;20020;-67
2022/09/26 04:18:39;;;;;;;7.97;4.20;;;;;;;10.87;82.77;100097.69;7399379;19;20040;-67
2022/09/26 04:21:09;;;;;;;5.95;3.67;;;;;;;10.87;83.02;100094.22;7398686;19;20017;-66
2022/09/26 04:23:42;;;;;;;7.55;4.38;;;;;;;10.84;82.89;100094.31;7398384;19;20024;-67
2022/09/26 04:26:12;;;;;;;6.25;4.45;;;;;;;10.83;83.15;100079.47;7396736;19;20015;-67
2022/09/26 04:28:41;;;;;;;6.57;3.85;;;;;;;10.83;83.18;100074.22;7398096;19;20015;-67
2022/09/26 04:31:11;;;;;;;8.63;4.07;;;;;;;10.82;83.41;100080.41;7397854;19;20523;-67
2022/09/26 04:33:40;;;;;;;5.55;4.20;;;;;;;10.81;83.50;100076.06;7397963;19;20555;-66
2022/09/26 04:36:11;;;;;;;5.05;4.20;;;;;;;10.80;83.86;100077.78;7397585;19;20018;-67
2022/09/26 04:38:43;;;;;;;7.90;4.80;;;;;;;10.77;83.89;100080.53;7398377;19;20022;-67
2022/09/26 04:41:13;;;;;;;6.32;5.57;;;;;;;10.74;84.00;100078.00;7395166;19;20074;-66
2022/09/26 04:43:42;;;;;;;11.73;8.00;;;;;;;10.71;84.01;100072.88;7396518;19;20020;-67
2022/09/26 04:46:12;;;;;;;10.00;6.85;;;;;;;10.70;84.06;100068.53;7398342;19;20078;-67
2022/09/26 04:48:41;;;;;;;6.00;5.40;;;;;;;10.68;84.30;100071.19;7397688;19;20089;-66
2022/09/26 04:51:11;;;;;;;7.50;5.90;;;;;;;10.67;84.32;100071.25;7397401;19;20489;-67
2022/09/26 04:53:43;;;;;;;8.93;6.70;;;;;;;10.64;84.47;100066.09;7396144;19;20017;-66
2022/09/26 04:56:13;;;;;;;9.90;7.03;;;;;;;10.61;84.91;100068.84;7397353;19;20087;-67
2022/09/26 04:58:43;;;;;;;12.35;7.22;;;;;;;10.58;84.88;100068.00;7393533;19;20011;-66
2022/09/26 05:01:13;;;;;;;7.43;6.07;;;;;;;10.55;85.05;100067.25;7396541;19;20413;-68
2022/09/26 05:03:43;;;;;;;9.57;7.50;;;;;;;10.53;85.09;100069.94;7396005;19;20029;-66
2022/09/26 05:06:12;;;;;;;9.20;6.93;;;;;;;10.49;85.36;100065.69;7395773;19;20089;-65
2022/09/26 05:08:46;;;;;;;10.95;6.97;;;;;;;10.51;85.48;100070.88;7396008;19;20033;-66
2022/09/26 05:11:16;;;;;;;10.38;7.07;;;;;;;10.50;85.58;100062.19;7396707;19;20027;-67
2022/09/26 05:13:44;;;;;;;8.80;7.15;;;;;;;10.50;85.70;100064.78;7395827;19;20021;-66
2022/09/26 05:16:14;;;;;;;12.43;7.88;;;;;;;10.47;86.06;100058.78;7396260;19;20435;-66
2022/09/26 05:18:43;;;;;;;9.05;7.05;;;;;;;10.45;86.10;100060.59;7395972;19;20074;-66
2022/09/26 05:21:12;;;;;;;9.13;6.95;;;;;;;10.43;86.29;100058.03;7393605;19;20453;-67
2022/09/26 05:26:29;;;;;;;10.95;8.20;;;;;;;10.38;86.35;100054.69;7398145;19;20390;-67
2022/09/26 05:29:00;;;;;;;10.10;7.57;;;;;;;10.35;86.59;100054.75;7397035;19;20014;-67
2022/09/26 05:31:35;;;;;;;10.43;7.90;;;;;;;10.31;86.79;100056.59;7394939;19;20019;-67
2022/09/26 05:34:04;;;;;;;11.20;8.20;;;;;;;10.27;86.98;100055.88;7394645;19;20484;-66
2022/09/26 05:36:32;;;;;;;10.23;8.32;;;;;;;10.24;87.06;100063.81;7396427;19;20018;-66
2022/09/26 05:39:01;;;;;;;11.57;8.90;;;;;;;10.22;87.14;100057.78;7394602;19;20499;-66
2022/09/26 05:41:31;;;;;;;12.65;8.90;;;;;;;10.19;87.25;100052.63;7396376;19;20090;-66
2022/09/26 05:44:00;;;;;;;11.45;9.13;;;;;;;10.18;87.42;100058.75;7396242;19;20011;-66
2022/09/26 05:46:37;;;;;;;16.98;10.57;;;;;;;10.16;87.43;100052.72;7396191;19;20025;-66
2022/09/26 05:49:05;;;;;;;12.90;9.30;;;;;;;10.15;87.53;100053.63;7395507;19;20081;-66
2022/09/26 05:51:33;;;;;;;12.82;9.65;;;;;;;10.14;87.67;100058.91;7396353;19;20015;-68
2022/09/26 05:54:02;;;;;;;12.57;9.63;;;;;;;10.14;87.78;100064.16;7394216;19;20086;-67
2022/09/26 05:56:36;;;;;;;15.15;9.88;;;;;;;10.11;87.80;100060.72;7395805;19;20587;-67
2022/09/26 05:59:04;;;;;;;12.93;9.85;;;;;;;10.10;87.73;100059.00;7395377;19;20020;-66
2022/09/26 06:01:34;;;;;;;49.40;30.50;;;;;;;10.10;88.00;100059.00;7396780;19;20363;-66
2022/09/26 06:04:04;;;;;;;16.70;12.90;;;;;;;10.09;88.32;100054.66;7395881;19;20092;-68
2022/09/26 06:06:32;;;;;;;16.10;11.40;;;;;;;10.09;88.24;100056.44;7395775;19;20492;-67
2022/09/26 06:09:02;;;;;;;13.50;9.18;;;;;;;10.08;88.35;100060.81;7395423;19;20036;-67
2022/09/26 06:11:33;;;;;;;12.48;9.73;;;;;;;10.08;88.42;100052.97;7394738;19;20019;-68
2022/09/26 06:14:01;;;;;;;10.80;9.00;;;;;;;10.08;88.33;100047.72;7393796;19;20439;-66
2022/09/26 06:16:30;;;;;;;10.90;9.15;;;;;;;10.10;88.52;100060.78;7395591;19;20018;-67
2022/09/26 06:19:00;;;;;;;12.45;8.27;;;;;;;10.12;88.68;100053.69;7395025;19;20015;-67
2022/09/26 06:21:28;;;;;;;10.45;8.20;;;;;;;10.13;88.63;100055.41;7395393;19;20018;-67
2022/09/26 06:23:57;;;;;;;13.75;9.02;;;;;;;10.14;88.59;100051.06;7393377;19;20014;-66
2022/09/26 06:26:27;;;;;;;10.32;8.05;;;;;;;10.16;88.92;100052.72;7394585;19;20074;-66
2022/09/26 06:29:00;;;;;;;9.20;8.02;;;;;;;10.20;89.17;100056.97;7395294;19;20022;-66
2022/09/26 06:31:29;;;;;;;10.50;7.97;;;;;;;10.23;88.76;100054.22;7395002;19;20018;-66
2022/09/26 06:34:00;;;;;;;10.45;8.70;;;;;;;10.25;88.99;100041.09;7394828;19;20434;-67
2022/09/26 06:36:29;;;;;;;12.80;8.40;;;;;;;10.30;89.00;100041.81;7393345;19;20022;-66
2022/09/26 06:38:57;;;;;;;9.85;8.43;;;;;;;10.30;88.78;100033.94;7394717;19;20019;-67
2022/09/26 06:41:26;;;;;;;10.13;8.02;;;;;;;10.38;88.73;100034.56;7394330;19;20485;-67
2022/09/26 06:43:55;;;;;;;10.73;9.23;;;;;;;10.43;89.06;100035.28;7392657;19;20018;-67
2022/09/26 06:46:26;;;;;;;10.77;8.73;;;;;;;10.48;88.65;100027.25;7393758;19;20074;-66
2022/09/26 06:48:55;;;;;;;11.57;9.18;;;;;;;10.53;88.57;100030.59;7394949;19;20031;-66
2022/09/26 06:51:30;;;;;;;11.77;9.27;;;;;;;10.58;88.60;100025.19;7392488;19;20090;-67
2022/09/26 06:53:59;;;;;;;14.30;8.82;;;;;;;10.64;88.49;100027.63;7392623;19;20011;-67
2022/09/26 06:56:27;;;;;;;13.02;9.40;;;;;;;10.69;88.45;100022.19;7394297;19;20078;-67
2022/09/26 06:58:56;;;;;;;10.50;8.52;;;;;;;10.73;88.28;100018.59;7393867;19;20381;-67
2022/09/26 07:01:27;;;;;;;11.55;9.73;;;;;;;10.76;88.00;100007.97;7393555;19;20011;-66
2022/09/26 07:03:57;;;;;;;11.95;9.35;;;;;;;10.85;88.12;100010.28;7394067;19;20015;-67
2022/09/26 07:06:25;;;;;;;11.82;9.25;;;;;;;10.90;88.02;100010.13;7398995;19;20022;-68
2022/09/26 07:08:54;;;;;;;13.45;10.93;;;;;;;10.96;87.82;100009.91;7398622;19;20022;-67
2022/09/26 07:11:23;;;;;;;15.35;9.05;;;;;;;11.01;87.80;100012.38;7398484;19;20019;-68
2022/09/26 07:13:52;;;;;;;13.25;9.48;;;;;;;11.06;87.61;100008.66;7398006;19;20040;-68
2022/09/26 07:16:20;;;;;;;12.48;9.38;;;;;;;11.13;87.47;100016.31;7400615;19;20134;-68
2022/09/26 07:18:51;;;;;;;13.98;9.65;;;;;;;11.17;87.19;100007.41;7397000;19;20396;-67
2022/09/26 07:21:20;;;;;;;14.20;10.35;;;;;;;11.24;87.20;100014.19;7400362;19;20070;-69
2022/09/26 07:23:48;;;;;;;16.70;10.40;;;;;;;11.28;86.94;100007.88;7398041;19;20022;-68
2022/09/26 07:26:17;;;;;;;11.25;9.32;;;;;;;11.32;86.70;99998.13;7400920;19;20025;-68
2022/09/26 07:28:45;;;;;;;13.10;10.43;;;;;;;11.36;86.48;100003.22;7400611;19;20088;-68
2022/09/26 07:31:14;;;;;;;12.32;10.27;;;;;;;11.43;86.53;100003.84;7398245;19;20018;-67
2022/09/26 07:33:42;;;;;;;13.25;11.18;;;;;;;11.49;86.38;100005.41;7400576;19;20019;-68
2022/09/26 07:36:14;;;;;;;17.77;12.00;;;;;;;11.57;86.40;100005.97;7399811;19;20019;-68
2022/09/26 07:38:43;;;;;;;14.32;10.93;;;;;;;11.64;86.16;100001.31;7400497;19;20025;-68
2022/09/26 07:41:12;;;;;;;13.75;10.82;;;;;;;11.69;86.01;99999.38;7400967;19;20102;-69
2022/09/26 07:43:40;;;;;;;12.02;10.27;;;;;;;11.76;85.48;99994.75;7399884;19;20018;-69
2022/09/26 07:51:33;;;;;;;14.68;9.73;;;;;;;11.96;84.48;99981.72;7400368;19;20123;-69
2022/09/26 07:54:01;;;;;;;12.68;7.25;;;;;;;12.03;83.99;99979.69;7399442;19;20011;-68
2022/09/26 07:56:33;;;;;;;14.18;8.50;;;;;;;12.09;83.70;99979.44;7399307;19;20010;-68
2022/09/26 07:59:04;;;;;;;10.73;8.52;;;;;;;12.14;83.34;99971.38;7399800;19;20024;-70
2022/09/26 08:01:36;;;;;;;11.10;7.60;;;;;;;12.22;82.84;99975.41;7399513;19;20014;-69
2022/09/26 08:04:05;;;;;;;9.18;6.65;;;;;;;12.28;82.20;99981.34;7396917;19;20010;-69
2022/09/26 08:06:36;;;;;;;7.43;5.88;;;;;;;12.33;81.37;99985.50;7399296;19;20552;-70
2022/09/26 08:09:05;;;;;;;8.30;5.47;;;;;;;12.39;80.88;99987.84;7398855;19;20384;-68
2022/09/26 08:11:34;;;;;;;5.93;4.47;;;;;;;12.44;78.95;99985.03;7399321;19;20078;-69
2022/09/26 08:14:02;;;;;;;9.40;5.43;;;;;;;12.47;77.96;99986.69;7399031;19;20539;-69
2022/09/26 08:16:31;;;;;;;7.03;4.65;;;;;;;12.52;77.71;99990.84;7397301;19;20025;-69
2022/09/26 08:19:00;;;;;;;7.68;4.68;;;;;;;12.55;76.90;99988.06;7397426;19;20032;-69
2022/09/26 08:21:28;;;;;;;7.07;4.78;;;;;;;12.60;76.89;99987.91;7398340;19;20015;-69
2022/09/26 08:24:00;;;;;;;5.50;4.00;;;;;;;12.64;75.22;99993.88;7398270;19;20035;-69
2022/09/26 08:26:28;;;;;;;8.18;4.68;;;;;;;12.70;75.92;99988.34;7398260;19;20018;-68
2022/09/26 08:28:57;;;;;;;6.30;3.92;;;;;;;12.75;75.70;99994.28;7398276;19;20022;-69
2022/09/26 08:31:27;;;;;;;7.22;3.95;;;;;;;12.81;75.16;99980.00;7397619;19;20014;-68
2022/09/26 08:33:55;;;;;;;10.52;4.32;;;;;;;12.90;75.09;99984.00;7397590;19;20503;-69
2022/09/26 08:36:24;;;;;;;8.77;3.83;;;;;;;12.96;74.36;99981.94;7396091;19;20018;-69
2022/09/26 08:38:52;;;;;;;6.22;2.50;;;;;;;13.00;72.74;99975.66;7397220;19;20094;-68
2022/09/26 08:41:35;;;;;;;3.38;2.20;;;;;;;13.04;70.97;99979.84;7397592;19;20088;-72
2022/09/26 08:44:20;;;;;;;3.47;2.58;;;;;;;13.09;70.39;99971.75;7397715;19;20587;-69
2022/09/26 08:46:59;;;;;;;5.03;1.98;;;;;;;13.13;69.59;99978.59;7397939;19;20015;-69
2022/09/26 08:49:49;;;;;;;3.33;2.20;;;;;;;13.16;66.12;99972.31;7397578;19;20039;-68
2022/09/26 08:52:34;;;;;;;4.90;2.03;;;;;;;13.21;68.00;99972.97;7398170;19;20137;-69
2022/09/26 08:55:07;;;;;;;4.85;2.03;;;;;;;13.26;69.18;99965.72;7396489;19;20010;-69
2022/09/26 08:57:43;;;;;;;2.92;1.83;;;;;;;13.30;67.33;99963.81;7397808;19;20356;-70
2022/09/26 09:00:21;;;;;;;4.05;2.58;;;;;;;13.32;65.70;99960.16;7396352;19;20356;-69
2022/09/26 09:03:09;;;;;;;3.15;1.80;;;;;;;13.37;65.86;99962.63;7397352;19;20539;-69
2022/09/26 09:05:40;;;;;;;3.45;1.58;;;;;;;13.41;66.67;99958.94;7396903;19;20018;-70
2022/09/26 09:08:14;;;;;;;7.90;2.03;;;;;;;13.44;66.43;99958.78;7396061;19;20078;-69
2022/09/26 09:10:48;;;;;;;2.08;1.30;;;;;;;13.50;65.77;99949.75;7395258;19;20548;-69
2022/09/26 09:13:35;;;;;;;4.60;1.20;;;;;;;13.54;64.84;99950.47;7397629;19;20032;-69
2022/09/26 09:16:14;;;;;;;2.65;1.67;;;;;;;13.58;64.57;99944.94;7397428;19;20091;-68
2022/09/26 09:18:51;;;;;;;4.47;1.27;;;;;;;13.64;63.53;99941.19;7396540;19;20018;-68
2022/09/26 09:21:32;;;;;;;5.22;1.38;;;;;;;13.71;64.07;99944.38;7397175;19;20106;-68
2022/09/26 09:24:18;;;;;;;2.92;1.40;;;;;;;13.78;62.61;99944.00;7397513;19;20085;-69
2022/09/26 09:26:57;;;;;;;2.22;0.88;;;;;;;13.85;62.86;99937.53;7397635;19;20097;-67
2022/09/26 09:30:00;;;;;;;6.38;1.95;;;;;;;13.92;60.34;99942.50;7395336;19;20014;-68
2022/09/26 09:32:33;;;;;;;2.92;1.27;;;;;;;13.96;62.55;99928.22;7397336;19;20074;-68
2022/09/26 09:35:04;;;;;;;2.80;1.25;;;;;;;13.99;62.73;99925.47;7394757;19;20074;-67
2022/09/26 09:37:44;;;;;;;3.05;1.20;;;;;;;14.05;61.86;99921.66;7397086;19;20087;-67
2022/09/26 09:40:21;;;;;;;1.48;1.20;;;;;;;14.10;62.25;99919.63;7394810;19;20021;-67
2022/09/26 09:42:54;;;;;;;4.72;1.30;;;;;;;14.18;61.93;99913.06;7396238;19;20018;-67
2022/09/26 09:45:32;;;;;;;2.55;1.42;;;;;;;14.24;61.49;99917.19;7395753;19;20014;-68
2022/09/26 09:48:00;;;;;;;5.28;2.08;;;;;;;14.31;62.72;99904.53;7394666;19;20019;-67
2022/09/26 09:50:41;;;;;;;4.05;2.05;;;;;;;14.39;60.78;99910.25;7393755;19;20358;-68
2022/09/26 09:53:23;;;;;;;1.90;1.45;;;;;;;14.50;61.88;99905.28;7396683;19;20025;-68
2022/09/26 09:56:08;;;;;;;2.58;1.05;;;;;;;14.64;61.39;99903.72;7395909;19;20453;-69
2022/09/26 09:59:02;;;;;;;3.88;1.65;;;;;;;14.80;60.54;99899.38;7393698;19;20481;-69
2022/09/26 10:01:38;;;;;;;1.85;1.23;;;;;;;14.96;59.71;99887.97;7396173;19;20014;-68
2022/09/26 10:04:12;;;;;;;2.90;1.23;;;;;;;15.13;60.48;99901.13;7393726;19;20033;-68
2022/09/26 10:06:42;;;;;;;6.03;2.92;;;;;;;15.24;58.88;99900.56;7393937;19;20104;-67
2022/09/26 10:09:20;;;;;;;4.32;1.60;;;;;;;15.34;59.35;99897.41;7393770;19;20034;-67
2022/09/26 10:11:49;;;;;;;6.13;3.42;;;;;;;15.38;59.45;99889.25;7393432;19;20418;-67
2022/09/26 10:14:30;;;;;;;10.10;4.13;;;;;;;15.43;58.34;99881.91;7395165;19;20017;-68
2022/09/26 10:17:19;;;;;;;7.32;2.90;;;;;;;15.48;57.87;99879.84;7395384;19;20086;-67
2022/09/26 10:19:48;;;;;;;5.45;2.10;;;;;;;15.52;59.09;99877.03;7393666;19;20061;-68
2022/09/26 10:22:24;;;;;;;2.83;1.17;;;;;;;15.55;58.01;99874.22;7393966;19;20015;-68
2022/09/26 10:24:56;;;;;;;5.45;1.90;;;;;;;15.52;58.82;99874.38;7393665;19;20030;-68
2022/09/26 10:27:33;;;;;;;2.92;1.10;;;;;;;15.50;57.41;99868.34;7392328;19;20517;-67
2022/09/26 10:30:03;;;;;;;3.92;1.00;;;;;;;15.46;57.36;99860.56;7393696;19;20025;-67
2022/09/26 10:32:46;;;;;;;2.13;0.90;;;;;;;15.47;56.22;99857.00;7394581;19;20094;-68
2022/09/26 10:35:20;;;;;;;2.80;1.00;;;;;;;15.48;56.82;99858.72;7393744;19;20026;-68
2022/09/26 10:37:52;;;;;;;3.92;0.95;;;;;;;15.51;56.78;99854.19;7393158;19;20022;-68
2022/09/26 10:43:23;;;;;;;4.22;0.98;;;;;;;15.50;55.16;99858.59;7401896;19;20073;-68
2022/09/26 10:45:55;;;;;;;3.47;0.93;;;;;;;15.45;56.17;99848.28;7400613;19;20018;-68
2022/09/26 10:48:38;;;;;;;4.05;0.90;;;;;;;15.43;55.62;99859.88;7402097;19;20014;-68
2022/09/26 10:51:09;;;;;;;1.77;0.85;;;;;;;15.38;55.95;99854.00;7403180;19;20018;-68
2022/09/26 10:53:41;;;;;;;3.28;1.00;;;;;;;15.32;55.61;99849.94;7400397;19;20023;-71
2022/09/26 10:56:25;;;;;;;4.53;0.80;;;;;;;15.28;55.56;99845.75;7403080;19;20025;-67
2022/09/26 10:58:58;;;;;;;3.10;1.10;;;;;;;15.25;56.32;99851.19;7402428;19;20023;-68
2022/09/26 11:01:31;;;;;;;3.10;1.02;;;;;;;15.24;56.29;99844.22;7399350;19;20023;-68
2022/09/26 11:05:55;;;;;;;4.28;0.80;;;;;;;15.21;54.51;99841.75;7403066;19;20021;-70
2022/09/26 11:07:04;;;;;;;3.05;0.70;;;;;;;15.20;56.14;99842.69;7398135;19;20028;-68
2022/09/26 11:09:33;;;;;;;3.60;0.90;;;;;;;15.22;56.57;99822.31;7399763;19;20395;-68
2022/09/26 11:12:24;;;;;;;2.92;0.80;;;;;;;15.26;55.90;99827.31;7400771;19;20428;-73
2022/09/26 11:14:56;;;;;;;5.35;1.55;;;;;;;15.30;55.85;99822.72;7400739;19;20089;-70
2022/09/26 11:17:24;;;;;;;3.15;1.00;;;;;;;15.38;55.66;99822.28;7401782;19;20015;-68
2022/09/26 11:20:01;;;;;;;2.08;0.60;;;;;;;15.47;55.18;99814.69;7399693;19;20074;-67
2022/09/26 11:22:38;;;;;;;8.32;1.17;;;;;;;15.59;54.89;99815.78;7400303;19;20441;-68
2022/09/26 11:25:13;;;;;;;3.50;1.48;;;;;;;15.70;54.08;99815.16;7400413;19;20019;-68
2022/09/26 11:27:46;;;;;;;4.45;1.13;;;;;;;15.77;54.38;99803.31;7400756;19;20029;-68
2022/09/26 11:30:19;;;;;;;3.50;1.27;;;;;;;15.85;53.14;99796.75;7397632;19;20018;-67
2022/09/26 11:32:52;;;;;;;1.55;0.80;;;;;;;15.88;52.69;99791.28;7399844;19;20343;-68
2022/09/26 11:35:42;;;;;;;6.13;1.10;;;;;;;15.96;52.41;99805.75;7399116;19;20014;-71
2022/09/26 11:38:22;;;;;;;2.53;0.70;;;;;;;15.98;52.10;99792.41;7400523;19;20011;-68
2022/09/26 11:41:06;;;;;;;1.85;0.80;;;;;;;16.01;51.51;99797.56;7397244;19;20078;-69
2022/09/26 11:43:46;;;;;;;4.13;0.95;;;;;;;16.02;52.62;99787.81;7396995;19;20361;-68
2022/09/26 11:46:33;;;;;;;2.20;0.90;;;;;;;16.03;52.65;99789.50;7398009;19;20040;-67
2022/09/26 11:49:37;;;;;;;2.45;1.00;;;;;;;16.04;53.07;99796.50;7399602;19;20018;-68
2022/09/26 11:52:24;;;;;;;3.33;1.30;;;;;;;16.01;52.26;99780.81;7400163;19;20098;-68
2022/09/26 11:55:04;;;;;;;5.13;1.33;;;;;;;15.99;53.31;99783.56;7398150;19;20069;-67
2022/09/26 11:57:42;;;;;;;5.65;2.03;;;;;;;15.96;52.59;99781.94;7400081;19;20032;-68
2022/09/26 12:00:23;;;;;;;3.40;1.40;;;;;;;15.94;52.92;99778.53;7398319;19;20018;-68
2022/09/26 12:03:26;;;;;;;2.58;1.00;;;;;;;15.95;52.70;99774.09;7399884;19;20014;-68
2022/09/26 12:06:00;;;;;;;2.45;1.20;;;;;;;16.02;53.19;99761.34;7398176;19;20017;-68
2022/09/26 12:08:49;;;;;;;4.13;1.52;;;;;;;16.09;51.06;99763.53;7399574;19;20015;-69
2022/09/26 12:11:32;;;;;;;3.33;0.88;;;;;;;16.19;52.33;99757.66;7397616;19;20078;-67